createdAt,value
2018-08-07T00:04:03.622Z,11.7
2018-08-07T00:09:58.721Z,10.89
2018-08-07T00:15:53.702Z,10.95
2018-08-07T00:21:48.667Z,11.86
2018-08-07T00:27:43.704Z,11.72
2018-08-07T00:33:38.662Z,11.19
2018-08-07T00:39:33.697Z,11.18
2018-08-07T00:45:28.712Z,11.67
2018-08-07T00:51:23.684Z,11.15
2018-08-07T00:57:18.686Z,11.63
2018-08-07T01:03:13.678Z,10.81
2018-08-07T01:09:08.670Z,11.9
2018-08-07T01:15:03.762Z,11.88
2018-08-07T01:20:58.681Z,12.11
2018-08-07T01:26:53.754Z,11.56
2018-08-07T01:32:48.721Z,11.87
2018-08-07T01:38:43.750Z,12
2018-08-07T01:44:38.772Z,12.1
2018-08-07T01:50:33.701Z,12.63
2018-08-07T01:56:28.769Z,11.88
2018-08-07T02:02:23.731Z,12.68
2018-08-07T02:08:18.753Z,12.01
2018-08-07T02:14:13.804Z,13.03
2018-08-07T02:20:08.774Z,12.7
2018-08-07T02:26:03.748Z,12.49
2018-08-07T02:31:58.853Z,12.73
2018-08-07T02:37:53.830Z,12.66
2018-08-07T02:43:48.749Z,13.06
2018-08-07T02:49:43.896Z,13.09
2018-08-07T02:55:38.845Z,12.89
2018-08-07T03:01:33.824Z,13.35
2018-08-07T03:07:28.894Z,12.93
2018-08-07T03:13:23.810Z,12.31
2018-08-07T03:19:18.887Z,13.1
2018-08-07T03:25:13.791Z,14.05
2018-08-07T03:31:08.830Z,14.27
2018-08-07T03:37:03.794Z,14.49
2018-08-07T03:42:58.865Z,14.24
2018-08-07T03:48:53.824Z,13.88
2018-08-07T03:54:48.826Z,14.38
2018-08-07T04:00:43.819Z,14.62
2018-08-07T04:06:38.818Z,14.31
2018-08-07T04:12:33.844Z,13.65
2018-08-07T04:18:28.841Z,14.45
2018-08-07T04:24:23.859Z,13.83
2018-08-07T04:30:18.869Z,14.38
2018-08-07T04:36:13.866Z,14.57
2018-08-07T04:42:08.861Z,15.09
2018-08-07T04:48:03.899Z,13.7
2018-08-07T04:53:58.879Z,14.31
2018-08-07T04:59:53.880Z,14.83
2018-08-07T05:05:48.888Z,14.98
2018-08-07T05:11:43.893Z,14.43
2018-08-07T05:17:38.905Z,15.65
2018-08-07T05:23:33.971Z,15.44
2018-08-07T05:29:28.976Z,15.49
2018-08-07T05:35:23.913Z,15.07
2018-08-07T05:41:18.894Z,15.21
2018-08-07T05:47:13.908Z,14.19
2018-08-07T05:53:08.955Z,14.76
2018-08-07T05:59:03.915Z,14.53
2018-08-07T06:04:58.944Z,15.48
2018-08-07T06:10:54.053Z,14.03
2018-08-07T06:16:48.941Z,15.33
2018-08-07T06:22:43.955Z,14.4
2018-08-07T06:28:38.998Z,15.46
2018-08-07T06:34:33.964Z,15.6
2018-08-07T06:40:28.969Z,15.05
2018-08-07T06:46:23.953Z,15.61
2018-08-07T06:52:18.990Z,16.03
2018-08-07T06:58:13.982Z,15.77
2018-08-07T07:04:08.972Z,15
2018-08-07T07:10:03.991Z,15.05
2018-08-07T07:15:59.068Z,15.23
2018-08-07T07:21:53.975Z,15.4
2018-08-07T07:27:49.030Z,15.09
2018-08-07T07:33:44.104Z,15.43
2018-08-07T07:39:39.033Z,15.29
2018-08-07T07:45:34.043Z,15.35
2018-08-07T07:51:29.012Z,14.77
2018-08-07T07:57:24.020Z,14.55
2018-08-07T08:03:19.055Z,14.46
2018-08-07T08:09:14.022Z,13.1
2018-08-07T08:15:09.105Z,13.07
2018-08-07T08:21:04.091Z,13.84
2018-08-07T08:26:59.047Z,13.27
2018-08-07T08:32:54.124Z,13.64
2018-08-07T08:38:49.126Z,13.46
2018-08-07T08:44:44.075Z,14.6
2018-08-07T08:50:39.123Z,12.67
2018-08-07T08:56:34.096Z,13.26
2018-08-07T09:02:29.114Z,12.85
2018-08-07T09:08:24.125Z,11.85
2018-08-07T09:14:19.123Z,12.1
2018-08-07T09:20:14.117Z,12.63
2018-08-07T09:26:09.285Z,11.62
2018-08-07T09:32:04.159Z,11.71
2018-08-07T09:37:59.130Z,11.8
2018-08-07T09:43:54.127Z,11.8
2018-08-07T09:49:49.195Z,11.15
2018-08-07T09:55:44.158Z,10.83
2018-08-07T10:01:39.133Z,11.2
2018-08-07T10:07:34.166Z,10.9
2018-08-07T10:13:29.127Z,9.96
2018-08-07T10:19:24.145Z,10.53
2018-08-07T10:25:19.158Z,9.31
2018-08-07T10:31:14.169Z,9.74
2018-08-07T10:37:09.197Z,8.97
2018-08-07T10:43:04.271Z,8.55
2018-08-07T10:48:59.171Z,9.34
2018-08-07T10:54:54.206Z,9.12
2018-08-07T11:00:49.205Z,8.5
2018-08-07T11:06:44.205Z,8.36
2018-08-07T11:12:39.218Z,7.39
2018-08-07T11:18:34.226Z,8.02
2018-08-07T11:24:29.255Z,7.8
2018-08-07T11:30:24.248Z,7.31
2018-08-07T11:36:19.218Z,7.72
2018-08-07T11:42:14.272Z,7.56
2018-08-07T11:48:09.320Z,7.18
2018-08-07T11:54:04.246Z,6.83
2018-08-07T11:59:59.233Z,6.01
2018-08-07T12:05:54.313Z,5.94
2018-08-07T12:11:49.304Z,5.87
2018-08-07T12:17:44.321Z,6.18
2018-08-07T12:23:39.270Z,5.54
2018-08-07T12:29:34.305Z,5.14
2018-08-07T12:35:29.254Z,4.87
2018-08-07T12:41:24.263Z,5.27
2018-08-07T12:47:19.286Z,4.83
2018-08-07T12:53:14.347Z,4.25
2018-08-07T12:59:09.302Z,4.76
2018-08-07T13:05:04.324Z,4.54
2018-08-07T13:10:59.339Z,4.56
2018-08-07T13:16:54.308Z,4.76
2018-08-07T13:22:49.314Z,4.53
2018-08-07T13:28:44.362Z,6.83
2018-08-07T13:34:39.346Z,6.82
2018-08-07T13:40:34.351Z,6.94
2018-08-07T13:46:29.398Z,8.03
2018-08-07T13:52:24.348Z,8.02
2018-08-07T13:58:19.428Z,7.38
2018-08-07T14:04:14.363Z,7.06
2018-08-07T14:10:09.397Z,6.75
2018-08-07T14:16:04.395Z,7.03
2018-08-07T14:21:59.422Z,6.91
2018-08-07T14:27:54.454Z,7.6
2018-08-07T14:33:49.470Z,6.78
2018-08-07T14:39:44.397Z,6.84
2018-08-07T14:45:39.441Z,6.28
2018-08-07T14:51:34.470Z,5.91
2018-08-07T14:57:29.445Z,5.51
2018-08-07T15:03:24.482Z,3.64
2018-08-07T15:09:19.426Z,3.77
2018-08-07T15:15:14.469Z,3.35
2018-08-07T15:21:09.481Z,3.52
2018-08-07T15:27:04.477Z,3.72
2018-08-07T15:32:59.454Z,3.51
2018-08-07T15:38:54.469Z,3.18
2018-08-07T15:44:49.465Z,3.3
2018-08-07T15:50:44.483Z,3.13
2018-08-07T15:56:39.503Z,2.97
2018-08-07T16:02:34.462Z,8.54
2018-08-07T16:08:29.479Z,3.54
2018-08-07T16:14:24.523Z,4.44
2018-08-07T16:20:19.497Z,3.91
2018-08-07T16:26:14.468Z,4.53
2018-08-07T16:32:09.512Z,5.34
2018-08-07T16:38:04.559Z,4.29
2018-08-07T16:43:59.570Z,4.13
2018-08-07T16:49:54.505Z,5.74
2018-08-07T16:55:49.523Z,4.75
2018-08-07T17:01:44.546Z,4.75
2018-08-07T17:07:39.537Z,5.65
2018-08-07T17:13:34.575Z,5.74
2018-08-07T17:19:29.522Z,5.98
2018-08-07T17:25:24.549Z,5.46
2018-08-07T17:31:19.584Z,4.58
2018-08-07T17:37:14.598Z,2.27
2018-08-07T17:43:09.654Z,2.31
2018-08-07T17:49:04.559Z,3.34
2018-08-07T17:54:59.598Z,1.43
2018-08-07T18:00:54.590Z,2.42
2018-08-07T18:06:49.599Z,1.99
2018-08-07T18:12:44.651Z,1.94
2018-08-07T18:18:39.642Z,2.03
2018-08-07T18:24:34.614Z,1.91
2018-08-07T18:30:29.595Z,2.07
2018-08-07T18:36:24.664Z,1.92
2018-08-07T18:42:19.648Z,2.68
2018-08-07T18:48:14.692Z,3.41
2018-08-07T18:54:09.618Z,3.85
2018-08-07T19:00:05.068Z,3.95
2018-08-07T19:05:59.616Z,4.07
2018-08-07T19:11:54.642Z,3.4
2018-08-07T19:17:49.672Z,2.73
2018-08-07T19:23:44.627Z,3.44
2018-08-07T19:29:39.667Z,3.8
2018-08-07T19:35:34.676Z,3.4
2018-08-07T19:41:29.641Z,3.32
2018-08-07T19:47:24.691Z,3.12
2018-08-07T19:53:19.696Z,3.51
2018-08-07T19:59:14.681Z,3.97
2018-08-07T20:05:09.721Z,3.59
2018-08-07T20:11:04.674Z,3.92
2018-08-07T20:16:59.805Z,4.12
2018-08-07T20:22:54.750Z,3.71
2018-08-07T20:28:49.708Z,3.68
2018-08-07T20:34:44.715Z,3.67
2018-08-07T20:40:39.743Z,4.25
2018-08-07T20:46:34.749Z,4.84
2018-08-07T20:52:29.734Z,4.05
2018-08-07T20:58:24.749Z,4.06
2018-08-07T21:04:19.742Z,4.16
2018-08-07T21:10:14.794Z,4.56
2018-08-07T21:16:09.849Z,4.14
2018-08-07T21:22:04.739Z,4.88
2018-08-07T21:27:59.758Z,5.55
2018-08-07T21:33:54.756Z,7.02
2018-08-07T21:39:49.782Z,7.21
2018-08-07T21:45:44.822Z,5.55
2018-08-07T21:51:39.885Z,6.15
2018-08-07T21:57:34.855Z,5.32
2018-08-07T22:03:29.819Z,4.73
2018-08-07T22:09:24.793Z,5.73
2018-08-07T22:15:19.836Z,6.28
2018-08-07T22:21:14.800Z,5.41
2018-08-07T22:27:09.813Z,4.96
2018-08-07T22:33:04.794Z,4.98
2018-08-07T22:38:59.800Z,5.73
2018-08-07T22:44:54.840Z,6.41
2018-08-07T22:50:49.861Z,5.53
2018-08-07T22:56:44.813Z,5.72
2018-08-07T23:02:39.825Z,6.3
2018-08-07T23:08:34.880Z,5.6
2018-08-07T23:14:29.899Z,5.66
2018-08-07T23:20:24.850Z,5.37
2018-08-07T23:26:19.873Z,5.45
2018-08-07T23:32:14.912Z,5.4
2018-08-07T23:38:09.864Z,5.97
2018-08-07T23:44:04.915Z,5.75
2018-08-07T23:49:59.872Z,6.54
2018-08-07T23:55:55.014Z,6.29
